createdAt,value
2019-02-17T00:00:41.569Z,3.21
2019-02-17T00:01:41.834Z,3.13
2019-02-17T00:02:42.020Z,3.13
2019-02-17T00:03:42.250Z,3.15
2019-02-17T00:04:42.471Z,3.12
2019-02-17T00:05:42.712Z,3.12
2019-02-17T00:06:42.916Z,3.08
2019-02-17T00:07:43.153Z,3.05
2019-02-17T00:08:43.393Z,3.06
2019-02-17T00:09:43.640Z,3.11
2019-02-17T00:10:44.206Z,3.12
2019-02-17T00:11:44.401Z,3.16
2019-02-17T00:12:44.640Z,3.09
2019-02-17T00:13:44.888Z,3.12
2019-02-17T00:14:45.111Z,3.06
2019-02-17T00:15:45.362Z,3.12
2019-02-17T00:16:45.581Z,3.13
2019-02-17T00:17:45.844Z,2.97
2019-02-17T00:18:46.146Z,2.98
2019-02-17T00:19:46.296Z,3.08
2019-02-17T00:20:46.779Z,3.03
2019-02-17T00:21:46.763Z,3.08
2019-02-17T00:22:47.027Z,3.09
2019-02-17T00:23:47.242Z,3.06
2019-02-17T00:24:47.479Z,2.98
2019-02-17T00:25:47.748Z,3.05
2019-02-17T00:26:48.054Z,2.98
2019-02-17T00:27:48.207Z,3.00
2019-02-17T00:28:48.440Z,2.91
2019-02-17T00:29:48.680Z,3.01
2019-02-17T00:30:48.927Z,2.93
2019-02-17T00:31:49.154Z,2.94
2019-02-17T00:32:49.421Z,2.85
2019-02-17T00:33:49.652Z,2.83
2019-02-17T00:34:49.923Z,2.76
2019-02-17T00:35:50.090Z,2.73
2019-02-17T00:36:50.329Z,2.69
2019-02-17T00:37:50.587Z,2.76
2019-02-17T00:38:50.825Z,2.73
2019-02-17T00:39:51.029Z,2.58
2019-02-17T00:40:51.290Z,2.59
2019-02-17T00:41:51.519Z,2.69
2019-02-17T00:42:51.823Z,2.65
2019-02-17T00:43:51.924Z,2.65
2019-02-17T00:44:52.155Z,2.65
2019-02-17T00:45:52.393Z,2.65
2019-02-17T00:46:52.615Z,2.59
2019-02-17T00:47:52.838Z,2.61
2019-02-17T00:48:53.122Z,2.55
2019-02-17T00:49:53.308Z,2.50
2019-02-17T00:50:53.829Z,2.55
2019-02-17T00:51:53.883Z,2.61
2019-02-17T00:52:54.092Z,2.51
2019-02-17T00:53:54.362Z,2.68
2019-02-17T00:54:54.565Z,2.52
2019-02-17T00:55:54.809Z,2.55
2019-02-17T00:56:55.044Z,2.59
2019-02-17T00:57:55.301Z,2.55
2019-02-17T00:58:55.564Z,2.51
2019-02-17T00:59:55.863Z,2.51
2019-02-17T01:00:57.392Z,2.46
2019-02-17T01:01:56.244Z,2.46
2019-02-17T01:02:56.481Z,2.59
2019-02-17T01:03:56.750Z,2.55
2019-02-17T01:04:56.945Z,2.65
2019-02-17T01:05:57.188Z,2.62
2019-02-17T01:06:57.409Z,2.64
2019-02-17T01:07:57.775Z,2.57
2019-02-17T01:08:57.962Z,2.55
2019-02-17T01:09:58.146Z,2.57
2019-02-17T01:10:58.379Z,2.57
2019-02-17T01:11:58.622Z,2.55
2019-02-17T01:12:58.877Z,2.54
2019-02-17T01:13:59.156Z,2.50
2019-02-17T01:14:59.351Z,2.34
2019-02-17T01:15:59.635Z,2.40
2019-02-17T01:16:59.826Z,2.41
2019-02-17T01:18:00.039Z,2.39
2019-02-17T01:19:00.355Z,2.36
2019-02-17T01:20:00.524Z,2.30
2019-02-17T01:21:00.760Z,2.28
2019-02-17T01:22:01.014Z,2.30
2019-02-17T01:23:01.235Z,2.25
2019-02-17T01:24:01.521Z,2.32
2019-02-17T01:25:01.698Z,2.30
2019-02-17T01:26:01.936Z,2.28
2019-02-17T01:27:02.197Z,2.34
2019-02-17T01:28:02.433Z,2.40
2019-02-17T01:29:02.765Z,2.39
2019-02-17T01:30:02.898Z,2.30
2019-02-17T01:31:03.142Z,2.32
2019-02-17T01:32:03.418Z,2.39
2019-02-17T01:33:03.695Z,2.36
2019-02-17T01:34:03.883Z,2.33
2019-02-17T01:35:04.088Z,2.36
2019-02-17T01:36:04.337Z,2.37
2019-02-17T01:37:04.588Z,2.25
2019-02-17T01:38:04.791Z,2.23
2019-02-17T01:39:05.129Z,2.25
2019-02-17T01:40:05.298Z,2.22
2019-02-17T01:41:05.633Z,2.14
2019-02-17T01:42:05.772Z,2.05
2019-02-17T01:43:05.986Z,2.08
2019-02-17T01:44:06.565Z,2.14
2019-02-17T01:45:06.473Z,2.05
2019-02-17T01:46:06.712Z,2.05
2019-02-17T01:47:06.958Z,2.15
2019-02-17T01:48:07.186Z,2.15
2019-02-17T01:49:07.527Z,2.04
2019-02-17T01:50:07.642Z,2.21
2019-02-17T01:51:07.871Z,2.21
2019-02-17T01:52:08.140Z,2.18
2019-02-17T01:53:08.353Z,2.15
2019-02-17T01:54:08.666Z,2.19
2019-02-17T01:55:08.842Z,2.18
2019-02-17T01:56:09.075Z,2.15
2019-02-17T01:57:09.351Z,2.05
2019-02-17T01:58:09.522Z,2.10
2019-02-17T01:59:09.830Z,2.10
2019-02-17T02:00:10.285Z,2.01
2019-02-17T02:01:10.258Z,2.07
2019-02-17T02:02:10.737Z,2.05
2019-02-17T02:03:10.732Z,2.03
2019-02-17T02:04:10.964Z,2.14
2019-02-17T02:05:11.251Z,2.12
2019-02-17T02:06:11.466Z,2.22
2019-02-17T02:07:11.694Z,2.19
2019-02-17T02:08:11.921Z,2.21
2019-02-17T02:09:12.178Z,2.18
2019-02-17T02:10:12.402Z,2.23
2019-02-17T02:11:12.626Z,2.21
2019-02-17T02:12:12.865Z,2.18
2019-02-17T02:13:13.130Z,2.15
2019-02-17T02:14:13.461Z,2.15
2019-02-17T02:15:13.629Z,2.18
2019-02-17T02:16:13.849Z,2.14
2019-02-17T02:17:14.089Z,2.21
2019-02-17T02:18:14.311Z,2.08
2019-02-17T02:19:14.577Z,2.16
2019-02-17T02:20:14.836Z,2.25
2019-02-17T02:21:15.038Z,2.22
2019-02-17T02:22:15.425Z,2.22
2019-02-17T02:23:15.516Z,2.23
2019-02-17T02:24:15.745Z,2.26
2019-02-17T02:25:16.019Z,2.22
2019-02-17T02:26:16.234Z,2.12
2019-02-17T02:27:16.473Z,2.05
2019-02-17T02:28:16.713Z,2.08
2019-02-17T02:29:16.928Z,1.97
2019-02-17T02:30:17.259Z,2.04
2019-02-17T02:31:17.397Z,2.00
2019-02-17T02:32:17.713Z,1.88
2019-02-17T02:33:17.865Z,1.89
2019-02-17T02:34:18.090Z,1.86
2019-02-17T02:35:18.348Z,1.81
2019-02-17T02:36:18.553Z,1.81
2019-02-17T02:37:18.821Z,1.86
2019-02-17T02:38:19.100Z,1.79
2019-02-17T02:39:19.282Z,1.82
2019-02-17T02:40:19.562Z,1.78
2019-02-17T02:41:19.754Z,1.79
2019-02-17T02:42:19.992Z,1.82
2019-02-17T02:43:20.231Z,1.78
2019-02-17T02:44:20.483Z,1.75
2019-02-17T02:45:20.788Z,1.74
2019-02-17T02:46:20.994Z,1.66
2019-02-17T02:47:21.280Z,1.56
2019-02-17T02:48:21.441Z,1.58
2019-02-17T02:49:21.677Z,1.53
2019-02-17T02:50:21.957Z,1.63
2019-02-17T02:51:22.151Z,1.56
2019-02-17T02:52:22.408Z,1.52
2019-02-17T02:53:22.611Z,1.58
2019-02-17T02:54:22.877Z,1.70
2019-02-17T02:55:23.279Z,1.68
2019-02-17T02:56:23.350Z,1.75
2019-02-17T02:57:23.607Z,1.75
2019-02-17T02:58:23.809Z,1.74
2019-02-17T02:59:24.058Z,1.78
2019-02-17T03:00:24.322Z,1.78
2019-02-17T03:01:24.531Z,1.76
2019-02-17T03:02:24.787Z,1.74
2019-02-17T03:03:25.110Z,1.76
2019-02-17T03:04:25.235Z,1.75
2019-02-17T03:05:25.528Z,1.75
2019-02-17T03:06:25.702Z,1.79
2019-02-17T03:07:25.969Z,1.78
2019-02-17T03:08:26.188Z,1.76
2019-02-17T03:09:26.410Z,1.68
2019-02-17T03:10:26.707Z,1.74
2019-02-17T03:11:26.952Z,1.78
2019-02-17T03:12:27.136Z,1.74
2019-02-17T03:13:27.383Z,1.79
2019-02-17T03:14:27.620Z,1.78
2019-02-17T03:15:27.884Z,1.74
2019-02-17T03:16:28.097Z,1.86
2019-02-17T03:17:28.347Z,1.86
2019-02-17T03:18:28.594Z,1.86
2019-02-17T03:19:28.873Z,1.88
2019-02-17T03:20:29.113Z,1.93
2019-02-17T03:21:29.287Z,1.93
2019-02-17T03:22:29.548Z,2.00
2019-02-17T03:23:29.803Z,1.86
2019-02-17T03:24:30.037Z,1.89
2019-02-17T03:25:30.313Z,1.88
2019-02-17T03:26:30.510Z,1.85
2019-02-17T03:27:30.772Z,1.93
2019-02-17T03:28:31.109Z,1.84
2019-02-17T03:29:31.226Z,1.82
2019-02-17T03:30:31.489Z,1.89
2019-02-17T03:31:31.718Z,1.85
2019-02-17T03:32:31.926Z,1.88
2019-02-17T03:33:32.194Z,1.84
2019-02-17T03:34:32.415Z,1.85
2019-02-17T03:35:32.669Z,1.79
2019-02-17T03:36:33.021Z,1.75
2019-02-17T03:37:33.102Z,1.82
2019-02-17T03:38:33.372Z,1.76
2019-02-17T03:39:33.593Z,1.76
2019-02-17T03:40:33.875Z,1.63
2019-02-17T03:41:34.308Z,1.63
2019-02-17T03:42:34.313Z,1.56
2019-02-17T03:43:34.555Z,1.53
2019-02-17T03:44:34.834Z,1.64
2019-02-17T03:45:35.034Z,1.58
2019-02-17T03:46:35.262Z,1.68
2019-02-17T03:47:35.490Z,1.68
2019-02-17T03:48:35.745Z,1.71
2019-02-17T03:49:35.950Z,1.70
2019-02-17T03:50:36.231Z,1.71
2019-02-17T03:51:36.451Z,1.75
2019-02-17T03:52:36.733Z,1.78
2019-02-17T03:53:36.921Z,1.78
2019-02-17T03:54:37.127Z,1.70
2019-02-17T03:55:37.388Z,1.70
2019-02-17T03:56:37.625Z,1.74
2019-02-17T03:57:37.852Z,1.74
2019-02-17T03:58:38.111Z,1.60
2019-02-17T03:59:38.331Z,1.63
2019-02-17T04:00:38.621Z,1.68
2019-02-17T04:01:38.850Z,1.68
2019-02-17T04:02:39.062Z,1.70
2019-02-17T04:03:39.303Z,1.64
2019-02-17T04:04:39.519Z,1.61
2019-02-17T04:05:39.772Z,1.61
2019-02-17T04:06:39.992Z,1.63
2019-02-17T04:07:40.239Z,1.49
2019-02-17T04:08:40.506Z,1.50
2019-02-17T04:09:40.817Z,1.56
2019-02-17T04:10:40.945Z,1.49
2019-02-17T04:11:41.178Z,1.48
2019-02-17T04:12:41.443Z,1.43
2019-02-17T04:13:41.684Z,1.32
2019-02-17T04:14:41.908Z,1.39
2019-02-17T04:15:42.166Z,1.32
2019-02-17T04:16:42.368Z,1.39
2019-02-17T04:17:42.664Z,1.21
2019-02-17T04:18:42.872Z,1.25
2019-02-17T04:19:43.089Z,1.28
2019-02-17T04:20:43.342Z,1.16
2019-02-17T04:21:43.557Z,1.21
2019-02-17T04:22:43.814Z,1.24
2019-02-17T04:23:44.072Z,1.24
2019-02-17T04:24:44.283Z,1.25
2019-02-17T04:25:44.589Z,1.28
2019-02-17T04:26:44.749Z,1.25
2019-02-17T04:27:45.002Z,1.34
2019-02-17T04:28:45.278Z,1.31
2019-02-17T04:29:45.494Z,1.34
2019-02-17T04:30:45.738Z,1.31
2019-02-17T04:31:46.022Z,1.42
2019-02-17T04:32:46.204Z,1.39
2019-02-17T04:33:46.578Z,1.42
2019-02-17T04:34:46.663Z,1.42
2019-02-17T04:35:46.911Z,1.36
2019-02-17T04:36:47.174Z,1.31
2019-02-17T04:37:47.379Z,1.32
2019-02-17T04:38:47.663Z,1.25
2019-02-17T04:39:47.853Z,1.24
2019-02-17T04:40:48.100Z,1.28
2019-02-17T04:41:48.398Z,1.25
2019-02-17T04:42:48.634Z,1.27
2019-02-17T04:43:48.839Z,1.21
2019-02-17T04:44:49.039Z,1.22
2019-02-17T04:45:49.289Z,1.30
2019-02-17T04:46:49.549Z,1.24
2019-02-17T04:47:49.769Z,1.20
2019-02-17T04:48:50.011Z,1.21
2019-02-17T04:49:50.249Z,1.13
2019-02-17T04:50:50.630Z,1.14
2019-02-17T04:51:50.754Z,1.12
2019-02-17T04:52:51.110Z,1.20
2019-02-17T04:53:51.229Z,1.21
2019-02-17T04:54:51.431Z,1.14
2019-02-17T04:55:51.667Z,1.07
2019-02-17T04:56:51.942Z,1.06
2019-02-17T04:57:52.176Z,1.12
2019-02-17T04:58:52.530Z,1.16
2019-02-17T04:59:52.604Z,1.16
2019-02-17T05:00:52.854Z,1.14
2019-02-17T05:01:53.124Z,1.20
2019-02-17T05:02:53.355Z,1.02
2019-02-17T05:03:53.599Z,1.04
2019-02-17T05:04:53.817Z,1.16
2019-02-17T05:05:54.053Z,1.18
2019-02-17T05:06:54.342Z,1.10
2019-02-17T05:07:54.532Z,1.16
2019-02-17T05:08:54.775Z,1.13
2019-02-17T05:09:54.996Z,1.16
2019-02-17T05:10:55.235Z,1.14
2019-02-17T05:11:55.488Z,1.21
2019-02-17T05:12:55.708Z,1.25
2019-02-17T05:13:55.968Z,1.27
2019-02-17T05:14:56.256Z,1.14
2019-02-17T05:15:56.413Z,1.18
2019-02-17T05:16:56.684Z,1.16
2019-02-17T05:17:56.915Z,1.21
2019-02-17T05:18:57.149Z,1.20
2019-02-17T05:19:57.401Z,1.21
2019-02-17T05:20:57.861Z,1.24
2019-02-17T05:21:57.874Z,1.24
2019-02-17T05:22:58.105Z,1.20
2019-02-17T05:23:58.410Z,1.22
2019-02-17T05:24:58.601Z,1.10
2019-02-17T05:25:58.834Z,1.22
2019-02-17T05:26:59.086Z,1.14
2019-02-17T05:27:59.316Z,1.20
2019-02-17T05:28:59.552Z,1.06
2019-02-17T05:29:59.764Z,0.99
2019-02-17T05:31:00.023Z,1.03
2019-02-17T05:32:00.412Z,1.02
2019-02-17T05:33:00.507Z,1.00
2019-02-17T05:34:00.718Z,0.95
2019-02-17T05:35:00.981Z,1.02
2019-02-17T05:36:01.233Z,0.95
2019-02-17T05:37:01.490Z,0.86
2019-02-17T05:38:01.736Z,0.94
2019-02-17T05:39:01.943Z,0.85
2019-02-17T05:40:02.246Z,0.85
2019-02-17T05:41:02.411Z,0.86
2019-02-17T05:42:02.646Z,0.86
2019-02-17T05:43:02.896Z,0.76
2019-02-17T05:44:03.122Z,0.86
2019-02-17T05:45:03.375Z,0.86
2019-02-17T05:46:03.581Z,0.82
2019-02-17T05:47:03.853Z,0.78
2019-02-17T05:48:04.130Z,0.78
2019-02-17T05:49:04.290Z,0.76
2019-02-17T05:50:04.562Z,0.68
2019-02-17T05:51:04.773Z,0.73
2019-02-17T05:52:05.013Z,0.76
2019-02-17T05:53:05.251Z,0.78
2019-02-17T05:54:05.478Z,0.61
2019-02-17T05:55:05.740Z,0.77
2019-02-17T05:56:06.025Z,0.77
2019-02-17T05:57:06.229Z,0.84
2019-02-17T05:58:06.463Z,0.81
2019-02-17T05:59:06.691Z,0.82
2019-02-17T06:00:06.953Z,0.74
2019-02-17T06:01:07.399Z,0.76
2019-02-17T06:02:07.431Z,0.76
2019-02-17T06:03:07.642Z,0.71
2019-02-17T06:04:07.886Z,0.70
2019-02-17T06:05:08.267Z,0.74
2019-02-17T06:06:08.363Z,0.77
2019-02-17T06:07:08.619Z,0.67
2019-02-17T06:08:08.831Z,0.82
2019-02-17T06:09:09.076Z,0.81
2019-02-17T06:10:09.329Z,0.74
2019-02-17T06:11:09.663Z,0.77
2019-02-17T06:12:09.799Z,0.73
2019-02-17T06:13:10.288Z,0.71
2019-02-17T06:14:10.258Z,0.74
2019-02-17T06:15:10.535Z,0.76
2019-02-17T06:16:10.739Z,0.74
2019-02-17T06:17:10.992Z,0.76
2019-02-17T06:18:11.220Z,0.77
2019-02-17T06:19:11.432Z,0.67
2019-02-17T06:20:11.717Z,0.77
2019-02-17T06:21:12.001Z,0.71
2019-02-17T06:22:12.179Z,0.59
2019-02-17T06:23:12.403Z,0.77
2019-02-17T06:24:12.628Z,0.76
2019-02-17T06:25:12.898Z,0.68
2019-02-17T06:26:13.116Z,0.70
2019-02-17T06:27:13.375Z,0.71
2019-02-17T06:28:13.600Z,0.71
2019-02-17T06:29:13.859Z,0.76
2019-02-17T06:30:14.050Z,0.74
2019-02-17T06:31:14.862Z,0.76
2019-02-17T06:32:14.527Z,0.76
2019-02-17T06:33:14.778Z,0.82
2019-02-17T06:34:15.014Z,0.74
2019-02-17T06:35:15.268Z,0.89
2019-02-17T06:36:15.488Z,0.89
2019-02-17T06:37:15.743Z,0.91
2019-02-17T06:38:16.079Z,0.89
2019-02-17T06:39:16.224Z,1.00
2019-02-17T06:40:16.476Z,0.89
2019-02-17T06:41:16.690Z,1.00
2019-02-17T06:42:16.918Z,1.03
2019-02-17T06:43:17.196Z,1.07
2019-02-17T06:44:17.406Z,1.09
2019-02-17T06:45:19.526Z,1.06
2019-02-17T06:46:17.991Z,1.18
2019-02-17T06:47:18.105Z,1.10
2019-02-17T06:48:18.393Z,1.21
2019-02-17T06:49:18.594Z,1.16
2019-02-17T06:50:18.860Z,1.24
2019-02-17T06:51:19.062Z,1.16
2019-02-17T06:52:19.305Z,1.14
2019-02-17T06:53:19.553Z,1.16
2019-02-17T06:54:19.880Z,1.07
2019-02-17T06:55:20.037Z,1.04
2019-02-17T06:56:20.252Z,1.20
2019-02-17T06:57:20.487Z,1.18
2019-02-17T06:58:20.728Z,1.12
2019-02-17T06:59:21.213Z,1.27
2019-02-17T07:00:21.219Z,1.27
2019-02-17T07:01:24.574Z,1.34
2019-02-17T07:02:21.736Z,1.22
2019-02-17T07:03:21.917Z,1.34
2019-02-17T07:04:22.158Z,1.27
2019-02-17T07:05:22.437Z,1.24
2019-02-17T07:06:22.641Z,1.32
2019-02-17T07:07:22.849Z,1.45
2019-02-17T07:08:23.126Z,1.40
2019-02-17T07:09:23.325Z,1.46
2019-02-17T07:10:23.637Z,1.49
2019-02-17T07:11:23.793Z,1.43
2019-02-17T07:12:24.064Z,1.45
2019-02-17T07:13:24.294Z,1.57
2019-02-17T07:14:24.520Z,1.52
2019-02-17T07:15:24.786Z,1.53
2019-02-17T07:16:24.975Z,1.48
2019-02-17T07:17:25.231Z,1.66
2019-02-17T07:18:25.498Z,1.58
2019-02-17T07:19:25.837Z,1.58
2019-02-17T07:20:25.962Z,1.74
2019-02-17T07:21:26.168Z,1.70
2019-02-17T07:22:26.417Z,1.76
2019-02-17T07:23:26.670Z,1.81
2019-02-17T07:24:26.901Z,1.81
2019-02-17T07:25:30.081Z,1.86
2019-02-17T07:26:27.371Z,1.92
2019-02-17T07:27:27.717Z,2.01
2019-02-17T07:28:27.856Z,2.03
2019-02-17T07:29:28.094Z,2.05
2019-02-17T07:30:28.334Z,2.08
2019-02-17T07:31:34.663Z,2.00
2019-02-17T07:32:29.782Z,2.21
2019-02-17T07:33:29.059Z,2.19
2019-02-17T07:34:29.286Z,2.18
2019-02-17T07:35:29.563Z,2.21
2019-02-17T07:36:29.737Z,2.19
2019-02-17T07:37:33.269Z,2.22
2019-02-17T07:38:30.234Z,2.30
2019-02-17T07:39:30.464Z,2.25
2019-02-17T07:40:30.694Z,2.39
2019-02-17T07:41:30.947Z,2.32
2019-02-17T07:42:31.193Z,2.43
2019-02-17T07:43:31.491Z,2.36
2019-02-17T07:44:31.656Z,2.47
2019-02-17T07:45:31.888Z,2.51
2019-02-17T07:46:32.145Z,2.64
2019-02-17T07:47:32.377Z,2.65
2019-02-17T07:48:32.632Z,2.70
2019-02-17T07:49:32.835Z,2.72
2019-02-17T07:50:33.093Z,2.76
2019-02-17T07:51:33.399Z,2.90
2019-02-17T07:52:34.275Z,3.03
2019-02-17T07:53:33.837Z,3.16
2019-02-17T07:54:34.069Z,3.37
2019-02-17T07:55:34.303Z,3.41
2019-02-17T07:56:34.571Z,3.45
2019-02-17T07:57:34.791Z,3.34
2019-02-17T07:58:35.045Z,3.55
2019-02-17T07:59:35.320Z,3.67
2019-02-17T08:00:35.584Z,3.70
2019-02-17T08:01:44.733Z,3.78
2019-02-17T08:02:36.975Z,3.73
2019-02-17T08:03:36.232Z,3.78
2019-02-17T08:04:36.461Z,3.77
2019-02-17T08:05:36.675Z,3.84
2019-02-17T08:06:36.944Z,3.71
2019-02-17T08:07:37.177Z,3.88
2019-02-17T08:08:37.561Z,3.88
2019-02-17T08:09:37.758Z,3.92
2019-02-17T08:10:37.916Z,4.07
2019-02-17T08:11:38.189Z,4.09
2019-02-17T08:12:38.408Z,4.24
2019-02-17T08:13:38.662Z,4.32
2019-02-17T08:14:38.894Z,4.25
2019-02-17T08:15:39.121Z,4.24
2019-02-17T08:16:39.443Z,4.42
2019-02-17T08:17:39.582Z,4.46
2019-02-17T08:18:39.843Z,4.36
2019-02-17T08:19:40.068Z,4.43
2019-02-17T08:20:40.304Z,4.46
2019-02-17T08:21:40.556Z,4.45
2019-02-17T08:22:40.759Z,4.57
2019-02-17T08:23:41.032Z,4.52
2019-02-17T08:24:41.331Z,4.57
2019-02-17T08:25:41.489Z,4.58
2019-02-17T08:26:41.743Z,4.56
2019-02-17T08:27:41.963Z,4.63
2019-02-17T08:28:42.536Z,4.66
2019-02-17T08:29:42.492Z,4.78
2019-02-17T08:30:42.696Z,4.79
2019-02-17T08:31:42.950Z,4.86
2019-02-17T08:32:44.026Z,4.84
2019-02-17T08:33:43.495Z,4.92
2019-02-17T08:34:43.726Z,5.01
2019-02-17T08:35:44.171Z,4.87
2019-02-17T08:36:44.195Z,5.02
2019-02-17T08:37:44.445Z,5.12
2019-02-17T08:38:44.670Z,5.00
2019-02-17T08:39:44.918Z,5.05
2019-02-17T08:40:45.125Z,5.08
2019-02-17T08:41:45.532Z,5.12
2019-02-17T08:42:45.598Z,5.20
2019-02-17T08:43:45.842Z,5.23
2019-02-17T08:44:46.117Z,5.29
2019-02-17T08:45:46.312Z,5.44
2019-02-17T08:46:46.592Z,5.55
2019-02-17T08:47:46.807Z,5.61
2019-02-17T08:48:47.045Z,5.56
2019-02-17T08:49:47.978Z,5.67
2019-02-17T08:50:47.536Z,5.80
2019-02-17T08:51:47.990Z,5.76
2019-02-17T08:52:48.109Z,5.90
2019-02-17T08:53:48.250Z,5.95
2019-02-17T08:54:49.126Z,5.99
2019-02-17T08:55:48.712Z,5.91
2019-02-17T08:56:48.969Z,6.06
2019-02-17T08:57:49.242Z,6.10
2019-02-17T08:58:49.559Z,6.12
2019-02-17T08:59:49.717Z,6.16
2019-02-17T09:00:49.908Z,6.22
2019-02-17T09:01:50.148Z,6.31
2019-02-17T09:02:50.369Z,6.35
2019-02-17T09:03:50.620Z,6.38
2019-02-17T09:04:50.890Z,6.41
2019-02-17T09:05:51.170Z,6.52
2019-02-17T09:06:51.348Z,6.60
2019-02-17T09:07:51.558Z,6.53
2019-02-17T09:08:51.798Z,6.72
2019-02-17T09:09:52.079Z,6.78
2019-02-17T09:10:52.298Z,6.77
2019-02-17T09:11:52.562Z,6.78
2019-02-17T09:12:52.777Z,6.83
2019-02-17T09:13:53.019Z,6.95
2019-02-17T09:14:53.386Z,6.89
2019-02-17T09:15:53.517Z,6.96
2019-02-17T09:16:53.834Z,6.96
2019-02-17T09:17:53.966Z,7.05
2019-02-17T09:18:54.177Z,7.07
2019-02-17T09:19:54.455Z,7.15
2019-02-17T09:20:54.684Z,7.28
2019-02-17T09:21:55.066Z,7.32
2019-02-17T09:22:55.486Z,7.33
2019-02-17T09:23:55.355Z,7.36
2019-02-17T09:24:55.626Z,7.46
2019-02-17T09:25:55.846Z,7.48
2019-02-17T09:26:56.115Z,7.44
2019-02-17T09:27:56.329Z,7.47
2019-02-17T09:28:56.570Z,7.48
2019-02-17T09:29:56.807Z,7.43
2019-02-17T09:30:57.132Z,7.48
2019-02-17T09:31:59.308Z,7.53
2019-02-17T09:32:57.522Z,7.51
2019-02-17T09:33:57.759Z,7.61
2019-02-17T09:34:58.015Z,7.67
2019-02-17T09:35:58.223Z,7.69
2019-02-17T09:36:58.489Z,7.69
2019-02-17T09:37:58.716Z,7.75
2019-02-17T09:38:58.981Z,7.78
2019-02-17T09:39:59.182Z,7.85
2019-02-17T09:40:59.401Z,7.83
2019-02-17T09:41:59.663Z,7.81
2019-02-17T09:42:59.894Z,7.84
2019-02-17T09:44:00.137Z,7.87
2019-02-17T09:45:00.387Z,7.90
2019-02-17T09:46:00.611Z,7.91
2019-02-17T09:47:00.887Z,7.96
2019-02-17T09:48:01.128Z,8.09
2019-02-17T09:49:01.332Z,8.08
2019-02-17T09:50:01.584Z,8.20
2019-02-17T09:51:01.815Z,8.23
2019-02-17T09:52:02.055Z,8.31
2019-02-17T09:53:02.261Z,8.31
2019-02-17T09:54:02.514Z,8.35
2019-02-17T09:55:03.634Z,8.39
2019-02-17T09:56:03.131Z,8.39
2019-02-17T09:57:03.235Z,8.41
2019-02-17T09:58:03.464Z,8.52
2019-02-17T09:59:03.700Z,8.52
2019-02-17T10:00:03.953Z,8.41
2019-02-17T10:01:04.177Z,8.53
2019-02-17T10:02:04.417Z,8.61
2019-02-17T10:03:04.646Z,8.64
2019-02-17T10:04:05.020Z,8.68
2019-02-17T10:05:05.166Z,8.74
2019-02-17T10:06:05.401Z,8.79
2019-02-17T10:07:05.630Z,8.84
2019-02-17T10:08:05.862Z,8.86
2019-02-17T10:09:06.116Z,8.89
2019-02-17T10:10:06.386Z,8.90
2019-02-17T10:11:06.637Z,8.97
2019-02-17T10:12:06.925Z,8.97
2019-02-17T10:13:07.307Z,8.96
2019-02-17T10:14:07.292Z,9.08
2019-02-17T10:15:07.562Z,9.09
2019-02-17T10:16:07.834Z,9.13
2019-02-17T10:17:08.060Z,9.15
2019-02-17T10:18:08.280Z,9.24
2019-02-17T10:19:08.498Z,9.21
2019-02-17T10:20:08.777Z,9.30
2019-02-17T10:21:08.977Z,9.33
2019-02-17T10:22:09.194Z,9.45
2019-02-17T10:23:09.453Z,9.52
2019-02-17T10:24:09.679Z,9.49
2019-02-17T10:25:09.935Z,9.51
2019-02-17T10:26:10.173Z,9.62
2019-02-17T10:27:10.383Z,9.63
2019-02-17T10:28:10.701Z,9.70
2019-02-17T10:29:10.929Z,9.82
2019-02-17T10:30:11.135Z,9.76
2019-02-17T10:31:11.828Z,9.80
2019-02-17T10:32:11.593Z,9.76
2019-02-17T10:33:11.849Z,9.84
2019-02-17T10:34:12.066Z,9.82
2019-02-17T10:35:12.326Z,9.91
2019-02-17T10:36:12.583Z,9.97
2019-02-17T10:37:12.864Z,9.95
2019-02-17T10:38:13.031Z,9.99
2019-02-17T10:39:13.252Z,10.09
2019-02-17T10:40:13.500Z,10.12
2019-02-17T10:41:13.745Z,10.12
2019-02-17T10:42:13.948Z,10.17
2019-02-17T10:43:14.224Z,10.20
2019-02-17T10:44:14.444Z,10.20
2019-02-17T10:45:14.794Z,10.20
2019-02-17T10:46:14.947Z,10.30
2019-02-17T10:47:15.129Z,10.23
2019-02-17T10:48:15.401Z,10.20
2019-02-17T10:49:15.621Z,10.25
2019-02-17T10:50:15.866Z,10.34
2019-02-17T10:51:16.149Z,10.30
2019-02-17T10:52:16.331Z,10.30
2019-02-17T10:53:16.600Z,10.27
2019-02-17T10:54:16.791Z,10.39
2019-02-17T10:55:17.051Z,10.28
2019-02-17T10:56:17.294Z,10.36
2019-02-17T10:57:17.507Z,10.33
2019-02-17T10:58:17.770Z,10.45
2019-02-17T10:59:17.960Z,10.46
2019-02-17T11:00:18.216Z,10.53
2019-02-17T11:01:18.550Z,10.57
2019-02-17T11:02:18.711Z,10.57
2019-02-17T11:03:18.987Z,10.65
2019-02-17T11:04:19.185Z,10.59
2019-02-17T11:05:19.413Z,10.64
2019-02-17T11:06:19.680Z,10.72
2019-02-17T11:07:19.918Z,10.65
2019-02-17T11:08:20.178Z,10.69
2019-02-17T11:09:20.417Z,10.72
2019-02-17T11:10:20.739Z,10.72
2019-02-17T11:11:20.887Z,10.75
2019-02-17T11:12:23.448Z,10.79
2019-02-17T11:13:21.374Z,10.77
2019-02-17T11:14:21.594Z,10.86
2019-02-17T11:15:21.831Z,10.79
2019-02-17T11:16:22.060Z,10.82
2019-02-17T11:17:22.314Z,10.87
2019-02-17T11:18:22.680Z,10.82
2019-02-17T11:19:22.781Z,10.86
2019-02-17T11:20:23.008Z,10.86
2019-02-17T11:21:28.048Z,10.90
2019-02-17T11:22:23.558Z,10.94
2019-02-17T11:23:23.757Z,10.97
2019-02-17T11:24:29.068Z,11.05
2019-02-17T11:25:24.219Z,11.10
2019-02-17T11:26:24.550Z,11.08
2019-02-17T11:27:24.680Z,11.08
2019-02-17T11:28:24.936Z,11.04
2019-02-17T11:29:25.157Z,11.12
2019-02-17T11:30:25.394Z,11.13
2019-02-17T11:31:25.650Z,11.08
2019-02-17T11:32:25.882Z,11.16
2019-02-17T11:33:26.164Z,11.13
2019-02-17T11:34:26.429Z,11.15
2019-02-17T11:35:26.593Z,11.16
2019-02-17T11:36:26.857Z,11.23
2019-02-17T11:37:27.086Z,11.18
2019-02-17T11:38:27.317Z,11.23
2019-02-17T11:39:27.552Z,11.26
2019-02-17T11:40:27.804Z,11.31
2019-02-17T11:41:28.062Z,11.40
2019-02-17T11:42:28.393Z,11.31
2019-02-17T11:43:28.537Z,11.37
2019-02-17T11:44:28.755Z,11.38
2019-02-17T11:45:29.007Z,11.52
2019-02-17T11:46:29.262Z,11.52
2019-02-17T11:47:29.491Z,11.58
2019-02-17T11:48:29.736Z,11.63
2019-02-17T11:49:29.955Z,11.55
2019-02-17T11:50:30.219Z,11.60
2019-02-17T11:51:30.544Z,11.65
2019-02-17T11:52:30.912Z,11.71
2019-02-17T11:53:30.921Z,11.71
2019-02-17T11:54:31.150Z,11.65
2019-02-17T11:55:31.380Z,11.77
2019-02-17T11:56:31.654Z,11.83
2019-02-17T11:57:31.882Z,11.77
2019-02-17T11:58:32.140Z,11.81
2019-02-17T11:59:32.483Z,11.81
2019-02-17T12:00:32.571Z,11.85
2019-02-17T12:01:32.839Z,11.86
2019-02-17T12:02:33.074Z,11.86
2019-02-17T12:03:33.319Z,11.96
2019-02-17T12:04:33.547Z,11.97
2019-02-17T12:05:33.782Z,11.95
2019-02-17T12:06:34.025Z,11.97
2019-02-17T12:07:34.359Z,11.96
2019-02-17T12:08:34.518Z,11.97
2019-02-17T12:09:34.730Z,12.05
2019-02-17T12:10:34.978Z,12.12
2019-02-17T12:11:35.208Z,12.12
2019-02-17T12:12:35.460Z,12.17
2019-02-17T12:13:35.798Z,12.11
2019-02-17T12:14:35.945Z,12.12
2019-02-17T12:15:36.226Z,12.12
2019-02-17T12:16:37.183Z,12.11
2019-02-17T12:17:36.641Z,12.17
2019-02-17T12:18:36.905Z,12.30
2019-02-17T12:19:37.140Z,12.28
2019-02-17T12:20:37.360Z,12.36
2019-02-17T12:21:37.624Z,12.29
2019-02-17T12:22:37.858Z,12.25
2019-02-17T12:23:38.150Z,12.28
2019-02-17T12:24:38.342Z,12.32
2019-02-17T12:25:38.561Z,12.33
2019-02-17T12:26:38.827Z,12.33
2019-02-17T12:27:39.092Z,12.32
2019-02-17T12:28:39.281Z,12.40
2019-02-17T12:29:39.504Z,12.39
2019-02-17T12:30:39.748Z,12.39
2019-02-17T12:31:40.022Z,12.48
2019-02-17T12:32:40.373Z,12.51
2019-02-17T12:33:40.450Z,12.40
2019-02-17T12:34:40.720Z,12.37
2019-02-17T12:35:40.980Z,12.40
2019-02-17T12:36:41.229Z,12.47
2019-02-17T12:37:41.474Z,12.40
2019-02-17T12:38:41.688Z,12.45
2019-02-17T12:39:41.925Z,12.50
2019-02-17T12:40:42.289Z,12.55
2019-02-17T12:41:42.439Z,12.53
2019-02-17T12:42:42.694Z,12.61
2019-02-17T12:43:42.906Z,12.58
2019-02-17T12:44:43.147Z,12.66
2019-02-17T12:45:43.380Z,12.66
2019-02-17T12:46:43.657Z,12.68
2019-02-17T12:47:43.941Z,12.70
2019-02-17T12:48:44.185Z,12.68
2019-02-17T12:49:44.343Z,12.70
2019-02-17T12:50:44.554Z,12.62
2019-02-17T12:51:44.822Z,12.75
2019-02-17T12:52:46.963Z,12.73
2019-02-17T12:53:45.282Z,12.63
2019-02-17T12:54:45.546Z,12.72
2019-02-17T12:55:45.754Z,12.76
2019-02-17T12:56:46.057Z,12.83
2019-02-17T12:57:46.241Z,12.83
2019-02-17T12:58:46.451Z,12.76
2019-02-17T12:59:46.706Z,12.78
2019-02-17T13:00:47.024Z,12.78
2019-02-17T13:01:47.189Z,12.75
2019-02-17T13:02:47.414Z,12.73
2019-02-17T13:03:47.665Z,12.76
2019-02-17T13:04:47.937Z,12.73
2019-02-17T13:05:48.150Z,12.80
2019-02-17T13:06:48.382Z,12.80
2019-02-17T13:07:48.641Z,12.76
2019-02-17T13:08:48.837Z,12.76
2019-02-17T13:09:49.094Z,12.83
2019-02-17T13:10:49.311Z,12.90
2019-02-17T13:11:49.566Z,12.87
2019-02-17T13:12:49.838Z,12.94
2019-02-17T13:13:50.124Z,12.94
2019-02-17T13:14:50.292Z,12.88
2019-02-17T13:15:50.502Z,12.90
2019-02-17T13:16:50.757Z,12.86